sensor_id;sensor_type;location;lat;lon;timestamp;P1;durP1;ratioP1;P2;durP2;ratioP2
24407;SDS011;12542;50.924;4.516;2023-06-10T00:00:45;8.93;;;6.00;;
24407;SDS011;12542;50.924;4.516;2023-06-10T00:03:11;9.02;;;5.90;;
24407;SDS011;12542;50.924;4.516;2023-06-10T00:05:40;10.85;;;6.13;;
24407;SDS011;12542;50.924;4.516;2023-06-10T00:08:06;8.75;;;5.88;;
24407;SDS011;12542;50.924;4.516;2023-06-10T00:10:33;9.40;;;5.43;;
24407;SDS011;12542;50.924;4.516;2023-06-10T00:13:03;7.70;;;5.65;;
24407;SDS011;12542;50.924;4.516;2023-06-10T00:15:29;8.35;;;6.22;;
24407;SDS011;12542;50.924;4.516;2023-06-10T00:17:55;9.45;;;6.43;;
24407;SDS011;12542;50.924;4.516;2023-06-10T00:20:21;7.18;;;5.95;;
24407;SDS011;12542;50.924;4.516;2023-06-10T00:22:49;10.32;;;5.97;;
24407;SDS011;12542;50.924;4.516;2023-06-10T00:25:15;8.00;;;5.85;;
24407;SDS011;12542;50.924;4.516;2023-06-10T00:27:40;6.97;;;5.80;;
24407;SDS011;12542;50.924;4.516;2023-06-10T00:30:06;8.55;;;5.97;;
24407;SDS011;12542;50.924;4.516;2023-06-10T00:32:33;7.13;;;6.15;;
24407;SDS011;12542;50.924;4.516;2023-06-10T00:34:59;11.70;;;5.97;;
24407;SDS011;12542;50.924;4.516;2023-06-10T00:37:25;10.60;;;6.53;;
24407;SDS011;12542;50.924;4.516;2023-06-10T00:39:50;11.98;;;6.25;;
24407;SDS011;12542;50.924;4.516;2023-06-10T00:42:16;12.23;;;6.03;;
24407;SDS011;12542;50.924;4.516;2023-06-10T00:44:42;11.30;;;5.82;;
24407;SDS011;12542;50.924;4.516;2023-06-10T00:47:07;7.82;;;5.97;;
24407;SDS011;12542;50.924;4.516;2023-06-10T00:49:33;9.23;;;6.18;;
24407;SDS011;12542;50.924;4.516;2023-06-10T00:52:00;7.75;;;6.25;;
24407;SDS011;12542;50.924;4.516;2023-06-10T00:54:29;9.45;;;6.40;;
24407;SDS011;12542;50.924;4.516;2023-06-10T00:56:54;8.27;;;6.18;;
24407;SDS011;12542;50.924;4.516;2023-06-10T00:59:21;9.38;;;6.55;;
24407;SDS011;12542;50.924;4.516;2023-06-10T01:01:47;10.98;;;6.97;;
24407;SDS011;12542;50.924;4.516;2023-06-10T01:04:13;11.35;;;7.38;;
24407;SDS011;12542;50.924;4.516;2023-06-10T01:06:41;11.63;;;6.50;;
24407;SDS011;12542;50.924;4.516;2023-06-10T01:12:09;8.30;;;6.25;;
24407;SDS011;12542;50.924;4.516;2023-06-10T01:14:44;8.93;;;6.50;;
24407;SDS011;12542;50.924;4.516;2023-06-10T01:17:11;9.25;;;6.70;;
24407;SDS011;12542;50.924;4.516;2023-06-10T01:19:37;10.68;;;6.50;;
24407;SDS011;12542;50.924;4.516;2023-06-10T01:22:05;8.25;;;6.38;;
24407;SDS011;12542;50.924;4.516;2023-06-10T01:24:32;8.68;;;6.70;;
24407;SDS011;12542;50.924;4.516;2023-06-10T01:27:00;12.35;;;6.80;;
24407;SDS011;12542;50.924;4.516;2023-06-10T01:29:33;11.55;;;7.05;;
24407;SDS011;12542;50.924;4.516;2023-06-10T01:32:11;10.20;;;6.68;;
24407;SDS011;12542;50.924;4.516;2023-06-10T01:34:42;8.23;;;6.72;;
24407;SDS011;12542;50.924;4.516;2023-06-10T01:37:11;11.50;;;7.28;;
24407;SDS011;12542;50.924;4.516;2023-06-10T01:39:40;8.95;;;6.82;;
24407;SDS011;12542;50.924;4.516;2023-06-10T01:42:08;9.43;;;6.70;;
24407;SDS011;12542;50.924;4.516;2023-06-10T01:44:36;8.18;;;6.47;;
24407;SDS011;12542;50.924;4.516;2023-06-10T01:47:04;9.85;;;7.13;;
24407;SDS011;12542;50.924;4.516;2023-06-10T01:49:30;10.80;;;7.18;;
24407;SDS011;12542;50.924;4.516;2023-06-10T01:51:56;9.32;;;7.00;;
24407;SDS011;12542;50.924;4.516;2023-06-10T01:54:23;13.77;;;7.55;;
24407;SDS011;12542;50.924;4.516;2023-06-10T01:56:49;12.30;;;7.90;;
24407;SDS011;12542;50.924;4.516;2023-06-10T01:59:15;12.05;;;7.25;;
24407;SDS011;12542;50.924;4.516;2023-06-10T02:01:40;7.82;;;6.65;;
24407;SDS011;12542;50.924;4.516;2023-06-10T02:04:06;17.80;;;6.75;;
24407;SDS011;12542;50.924;4.516;2023-06-10T02:06:32;9.77;;;7.18;;
24407;SDS011;12542;50.924;4.516;2023-06-10T02:08:59;9.27;;;7.50;;
24407;SDS011;12542;50.924;4.516;2023-06-10T02:11:25;10.23;;;7.68;;
24407;SDS011;12542;50.924;4.516;2023-06-10T02:13:51;9.85;;;7.10;;
24407;SDS011;12542;50.924;4.516;2023-06-10T02:16:17;12.10;;;7.50;;
24407;SDS011;12542;50.924;4.516;2023-06-10T02:18:43;10.63;;;6.95;;
24407;SDS011;12542;50.924;4.516;2023-06-10T02:21:09;12.18;;;7.70;;
24407;SDS011;12542;50.924;4.516;2023-06-10T02:23:35;10.88;;;7.40;;
24407;SDS011;12542;50.924;4.516;2023-06-10T02:26:01;10.15;;;7.38;;
24407;SDS011;12542;50.924;4.516;2023-06-10T02:28:28;10.40;;;7.10;;
24407;SDS011;12542;50.924;4.516;2023-06-10T02:30:54;10.35;;;7.25;;
24407;SDS011;12542;50.924;4.516;2023-06-10T02:33:19;10.07;;;7.47;;
24407;SDS011;12542;50.924;4.516;2023-06-10T02:35:46;9.80;;;7.32;;
24407;SDS011;12542;50.924;4.516;2023-06-10T02:38:12;10.95;;;7.10;;
24407;SDS011;12542;50.924;4.516;2023-06-10T02:40:38;10.00;;;8.05;;
24407;SDS011;12542;50.924;4.516;2023-06-10T02:43:03;10.60;;;8.02;;
24407;SDS011;12542;50.924;4.516;2023-06-10T02:45:29;12.55;;;8.13;;
24407;SDS011;12542;50.924;4.516;2023-06-10T02:47:55;11.27;;;7.20;;
24407;SDS011;12542;50.924;4.516;2023-06-10T02:50:21;11.43;;;8.02;;
24407;SDS011;12542;50.924;4.516;2023-06-10T02:52:46;10.82;;;7.82;;
24407;SDS011;12542;50.924;4.516;2023-06-10T02:55:13;12.50;;;7.22;;
24407;SDS011;12542;50.924;4.516;2023-06-10T02:57:39;11.05;;;8.20;;
24407;SDS011;12542;50.924;4.516;2023-06-10T03:00:06;11.00;;;8.10;;
24407;SDS011;12542;50.924;4.516;2023-06-10T03:02:36;10.77;;;7.82;;
24407;SDS011;12542;50.924;4.516;2023-06-10T03:05:04;10.82;;;7.38;;
24407;SDS011;12542;50.924;4.516;2023-06-10T03:07:30;11.32;;;7.93;;
24407;SDS011;12542;50.924;4.516;2023-06-10T03:09:57;9.98;;;7.75;;
24407;SDS011;12542;50.924;4.516;2023-06-10T03:12:22;10.43;;;7.70;;
24407;SDS011;12542;50.924;4.516;2023-06-10T03:14:48;12.23;;;8.25;;
24407;SDS011;12542;50.924;4.516;2023-06-10T03:17:14;9.23;;;7.43;;
24407;SDS011;12542;50.924;4.516;2023-06-10T03:19:40;13.90;;;8.27;;
24407;SDS011;12542;50.924;4.516;2023-06-10T03:22:13;9.60;;;7.88;;
24407;SDS011;12542;50.924;4.516;2023-06-10T03:24:40;12.48;;;8.70;;
24407;SDS011;12542;50.924;4.516;2023-06-10T03:27:09;11.75;;;8.55;;
24407;SDS011;12542;50.924;4.516;2023-06-10T03:29:36;10.52;;;8.57;;
24407;SDS011;12542;50.924;4.516;2023-06-10T03:32:02;11.07;;;8.82;;
24407;SDS011;12542;50.924;4.516;2023-06-10T03:34:28;10.75;;;8.45;;
24407;SDS011;12542;50.924;4.516;2023-06-10T03:36:55;9.40;;;8.25;;
24407;SDS011;12542;50.924;4.516;2023-06-10T03:39:21;12.85;;;9.60;;
24407;SDS011;12542;50.924;4.516;2023-06-10T03:41:48;10.85;;;8.30;;
24407;SDS011;12542;50.924;4.516;2023-06-10T03:44:14;14.05;;;8.65;;
24407;SDS011;12542;50.924;4.516;2023-06-10T03:46:40;12.02;;;8.48;;
24407;SDS011;12542;50.924;4.516;2023-06-10T03:49:07;11.68;;;8.73;;
24407;SDS011;12542;50.924;4.516;2023-06-10T03:51:34;12.00;;;9.27;;
24407;SDS011;12542;50.924;4.516;2023-06-10T03:54:00;9.73;;;8.10;;
24407;SDS011;12542;50.924;4.516;2023-06-10T03:56:26;11.32;;;8.52;;
24407;SDS011;12542;50.924;4.516;2023-06-10T03:58:53;12.15;;;8.57;;
24407;SDS011;12542;50.924;4.516;2023-06-10T04:01:19;9.95;;;8.35;;
24407;SDS011;12542;50.924;4.516;2023-06-10T04:03:46;11.95;;;9.10;;
24407;SDS011;12542;50.924;4.516;2023-06-10T04:06:13;10.85;;;8.52;;
24407;SDS011;12542;50.924;4.516;2023-06-10T04:08:39;11.15;;;9.25;;
24407;SDS011;12542;50.924;4.516;2023-06-10T04:11:06;11.55;;;9.32;;
24407;SDS011;12542;50.924;4.516;2023-06-10T04:13:32;13.57;;;9.00;;
24407;SDS011;12542;50.924;4.516;2023-06-10T04:15:57;13.88;;;9.23;;
24407;SDS011;12542;50.924;4.516;2023-06-10T04:18:23;11.02;;;8.38;;
24407;SDS011;12542;50.924;4.516;2023-06-10T04:20:51;15.40;;;8.85;;
24407;SDS011;12542;50.924;4.516;2023-06-10T04:23:17;13.10;;;8.93;;
24407;SDS011;12542;50.924;4.516;2023-06-10T04:25:43;13.38;;;9.02;;
24407;SDS011;12542;50.924;4.516;2023-06-10T04:28:09;9.10;;;8.13;;
24407;SDS011;12542;50.924;4.516;2023-06-10T04:30:35;11.88;;;8.70;;
24407;SDS011;12542;50.924;4.516;2023-06-10T04:33:00;11.00;;;7.78;;
24407;SDS011;12542;50.924;4.516;2023-06-10T04:35:28;11.27;;;8.25;;
24407;SDS011;12542;50.924;4.516;2023-06-10T04:37:54;12.57;;;8.27;;
24407;SDS011;12542;50.924;4.516;2023-06-10T04:40:20;8.57;;;7.65;;
24407;SDS011;12542;50.924;4.516;2023-06-10T04:42:46;14.35;;;8.32;;
24407;SDS011;12542;50.924;4.516;2023-06-10T04:45:11;12.38;;;8.57;;
24407;SDS011;12542;50.924;4.516;2023-06-10T04:47:37;11.07;;;7.78;;
24407;SDS011;12542;50.924;4.516;2023-06-10T04:50:03;12.75;;;8.25;;
24407;SDS011;12542;50.924;4.516;2023-06-10T04:52:29;10.43;;;8.13;;
24407;SDS011;12542;50.924;4.516;2023-06-10T04:54:55;10.77;;;8.00;;
24407;SDS011;12542;50.924;4.516;2023-06-10T04:57:23;10.75;;;8.55;;
24407;SDS011;12542;50.924;4.516;2023-06-10T04:59:50;11.75;;;8.48;;
24407;SDS011;12542;50.924;4.516;2023-06-10T05:02:15;11.35;;;7.50;;
24407;SDS011;12542;50.924;4.516;2023-06-10T05:04:41;9.80;;;7.75;;
24407;SDS011;12542;50.924;4.516;2023-06-10T05:07:07;10.82;;;8.00;;
24407;SDS011;12542;50.924;4.516;2023-06-10T05:09:33;9.38;;;7.43;;
24407;SDS011;12542;50.924;4.516;2023-06-10T05:11:58;12.88;;;8.23;;
24407;SDS011;12542;50.924;4.516;2023-06-10T05:14:24;13.85;;;8.60;;
24407;SDS011;12542;50.924;4.516;2023-06-10T05:16:50;11.90;;;7.97;;
24407;SDS011;12542;50.924;4.516;2023-06-10T05:19:16;11.75;;;8.15;;
24407;SDS011;12542;50.924;4.516;2023-06-10T05:21:45;10.07;;;8.38;;
24407;SDS011;12542;50.924;4.516;2023-06-10T05:24:11;12.38;;;8.15;;
24407;SDS011;12542;50.924;4.516;2023-06-10T05:26:37;11.18;;;8.68;;
24407;SDS011;12542;50.924;4.516;2023-06-10T05:29:06;11.57;;;8.23;;
24407;SDS011;12542;50.924;4.516;2023-06-10T05:31:34;14.45;;;8.00;;
24407;SDS011;12542;50.924;4.516;2023-06-10T05:34:00;9.38;;;7.85;;
24407;SDS011;12542;50.924;4.516;2023-06-10T05:36:25;10.77;;;8.63;;
24407;SDS011;12542;50.924;4.516;2023-06-10T05:38:51;12.63;;;8.20;;
24407;SDS011;12542;50.924;4.516;2023-06-10T05:41:17;10.15;;;7.60;;
24407;SDS011;12542;50.924;4.516;2023-06-10T05:43:43;11.20;;;7.88;;
24407;SDS011;12542;50.924;4.516;2023-06-10T05:46:10;10.88;;;8.32;;
24407;SDS011;12542;50.924;4.516;2023-06-10T05:48:36;10.57;;;8.18;;
24407;SDS011;12542;50.924;4.516;2023-06-10T05:51:01;15.77;;;8.80;;
24407;SDS011;12542;50.924;4.516;2023-06-10T05:53:27;13.90;;;8.65;;
24407;SDS011;12542;50.924;4.516;2023-06-10T05:55:53;11.95;;;9.48;;
24407;SDS011;12542;50.924;4.516;2023-06-10T05:58:22;11.25;;;8.43;;
24407;SDS011;12542;50.924;4.516;2023-06-10T06:00:49;10.52;;;8.30;;
24407;SDS011;12542;50.924;4.516;2023-06-10T06:03:15;13.48;;;8.55;;
24407;SDS011;12542;50.924;4.516;2023-06-10T06:05:41;10.27;;;8.05;;
24407;SDS011;12542;50.924;4.516;2023-06-10T06:08:07;11.65;;;8.52;;
24407;SDS011;12542;50.924;4.516;2023-06-10T06:10:32;14.45;;;8.95;;
24407;SDS011;12542;50.924;4.516;2023-06-10T06:12:59;14.35;;;8.75;;
24407;SDS011;12542;50.924;4.516;2023-06-10T06:15:25;11.27;;;8.32;;
24407;SDS011;12542;50.924;4.516;2023-06-10T06:17:54;12.73;;;8.65;;
24407;SDS011;12542;50.924;4.516;2023-06-10T06:20:22;10.85;;;8.02;;
24407;SDS011;12542;50.924;4.516;2023-06-10T06:22:48;11.40;;;8.35;;
24407;SDS011;12542;50.924;4.516;2023-06-10T06:25:14;13.35;;;8.65;;
24407;SDS011;12542;50.924;4.516;2023-06-10T06:27:40;11.73;;;8.15;;
24407;SDS011;12542;50.924;4.516;2023-06-10T06:30:06;10.40;;;8.27;;
24407;SDS011;12542;50.924;4.516;2023-06-10T06:32:32;17.13;;;7.70;;
24407;SDS011;12542;50.924;4.516;2023-06-10T06:34:58;11.80;;;8.65;;
24407;SDS011;12542;50.924;4.516;2023-06-10T06:37:24;9.98;;;7.55;;
24407;SDS011;12542;50.924;4.516;2023-06-10T06:39:51;9.00;;;7.78;;
24407;SDS011;12542;50.924;4.516;2023-06-10T06:42:20;14.23;;;8.35;;
24407;SDS011;12542;50.924;4.516;2023-06-10T06:44:46;9.00;;;7.70;;
24407;SDS011;12542;50.924;4.516;2023-06-10T06:47:12;11.23;;;7.82;;
24407;SDS011;12542;50.924;4.516;2023-06-10T06:49:38;14.13;;;7.40;;
24407;SDS011;12542;50.924;4.516;2023-06-10T06:52:04;9.00;;;7.07;;
24407;SDS011;12542;50.924;4.516;2023-06-10T06:54:30;11.30;;;7.10;;
24407;SDS011;12542;50.924;4.516;2023-06-10T06:56:56;11.38;;;7.68;;
24407;SDS011;12542;50.924;4.516;2023-06-10T06:59:22;9.95;;;7.63;;
24407;SDS011;12542;50.924;4.516;2023-06-10T07:01:50;11.35;;;7.40;;
24407;SDS011;12542;50.924;4.516;2023-06-10T07:04:16;11.60;;;7.50;;
24407;SDS011;12542;50.924;4.516;2023-06-10T07:06:42;10.63;;;7.40;;
24407;SDS011;12542;50.924;4.516;2023-06-10T07:09:07;9.35;;;7.32;;
24407;SDS011;12542;50.924;4.516;2023-06-10T07:11:36;9.75;;;7.00;;
24407;SDS011;12542;50.924;4.516;2023-06-10T07:14:02;13.55;;;7.90;;
24407;SDS011;12542;50.924;4.516;2023-06-10T07:16:27;8.68;;;7.65;;
24407;SDS011;12542;50.924;4.516;2023-06-10T07:18:53;10.55;;;7.35;;
24407;SDS011;12542;50.924;4.516;2023-06-10T07:21:19;10.40;;;7.03;;
24407;SDS011;12542;50.924;4.516;2023-06-10T07:23:46;9.57;;;7.30;;
24407;SDS011;12542;50.924;4.516;2023-06-10T07:26:12;10.27;;;6.90;;
24407;SDS011;12542;50.924;4.516;2023-06-10T07:28:39;8.93;;;7.05;;
24407;SDS011;12542;50.924;4.516;2023-06-10T07:31:05;10.45;;;7.55;;
24407;SDS011;12542;50.924;4.516;2023-06-10T07:33:30;8.88;;;6.75;;
24407;SDS011;12542;50.924;4.516;2023-06-10T07:35:56;8.65;;;6.75;;
24407;SDS011;12542;50.924;4.516;2023-06-10T07:38:22;12.52;;;8.13;;
24407;SDS011;12542;50.924;4.516;2023-06-10T07:40:47;12.98;;;7.45;;
24407;SDS011;12542;50.924;4.516;2023-06-10T07:43:13;7.60;;;6.70;;
24407;SDS011;12542;50.924;4.516;2023-06-10T07:45:42;9.75;;;6.40;;
24407;SDS011;12542;50.924;4.516;2023-06-10T07:48:08;10.85;;;6.95;;
24407;SDS011;12542;50.924;4.516;2023-06-10T07:50:34;8.98;;;6.50;;
24407;SDS011;12542;50.924;4.516;2023-06-10T07:53:01;9.07;;;6.90;;
24407;SDS011;12542;50.924;4.516;2023-06-10T07:55:27;9.70;;;6.75;;
24407;SDS011;12542;50.924;4.516;2023-06-10T07:57:53;9.57;;;6.45;;
24407;SDS011;12542;50.924;4.516;2023-06-10T08:00:21;7.95;;;6.38;;
24407;SDS011;12542;50.924;4.516;2023-06-10T08:02:47;9.30;;;6.28;;
24407;SDS011;12542;50.924;4.516;2023-06-10T08:05:13;12.85;;;7.30;;
24407;SDS011;12542;50.924;4.516;2023-06-10T08:07:39;11.07;;;6.28;;
24407;SDS011;12542;50.924;4.516;2023-06-10T08:10:05;8.57;;;6.25;;
24407;SDS011;12542;50.924;4.516;2023-06-10T08:12:32;9.80;;;6.22;;
24407;SDS011;12542;50.924;4.516;2023-06-10T08:14:58;10.13;;;6.50;;
24407;SDS011;12542;50.924;4.516;2023-06-10T08:17:24;9.18;;;6.30;;
24407;SDS011;12542;50.924;4.516;2023-06-10T08:19:50;7.70;;;6.22;;
24407;SDS011;12542;50.924;4.516;2023-06-10T08:22:16;9.50;;;5.93;;
24407;SDS011;12542;50.924;4.516;2023-06-10T08:24:42;8.38;;;5.72;;
24407;SDS011;12542;50.924;4.516;2023-06-10T08:27:07;7.95;;;5.63;;
24407;SDS011;12542;50.924;4.516;2023-06-10T08:29:35;8.05;;;6.38;;
24407;SDS011;12542;50.924;4.516;2023-06-10T08:32:01;8.15;;;6.13;;
24407;SDS011;12542;50.924;4.516;2023-06-10T08:34:27;10.00;;;5.50;;
24407;SDS011;12542;50.924;4.516;2023-06-10T08:36:53;8.05;;;5.60;;
24407;SDS011;12542;50.924;4.516;2023-06-10T08:39:20;8.90;;;5.65;;
24407;SDS011;12542;50.924;4.516;2023-06-10T08:44:53;7.75;;;5.57;;
24407;SDS011;12542;50.924;4.516;2023-06-10T08:47:22;6.15;;;4.60;;
24407;SDS011;12542;50.924;4.516;2023-06-10T08:49:49;9.32;;;4.95;;
24407;SDS011;12542;50.924;4.516;2023-06-10T08:52:16;7.38;;;5.13;;
24407;SDS011;12542;50.924;4.516;2023-06-10T08:57:16;6.05;;;4.65;;
24407;SDS011;12542;50.924;4.516;2023-06-10T08:59:45;8.75;;;4.80;;
24407;SDS011;12542;50.924;4.516;2023-06-10T09:02:11;6.28;;;5.53;;
24407;SDS011;12542;50.924;4.516;2023-06-10T09:04:38;7.90;;;4.40;;
24407;SDS011;12542;50.924;4.516;2023-06-10T09:07:04;7.47;;;4.63;;
24407;SDS011;12542;50.924;4.516;2023-06-10T09:09:31;5.82;;;4.10;;
24407;SDS011;12542;50.924;4.516;2023-06-10T09:11:59;5.93;;;4.00;;
24407;SDS011;12542;50.924;4.516;2023-06-10T09:14:25;6.55;;;3.97;;
24407;SDS011;12542;50.924;4.516;2023-06-10T09:16:51;4.72;;;3.80;;
24407;SDS011;12542;50.924;4.516;2023-06-10T09:19:17;6.80;;;4.35;;
24407;SDS011;12542;50.924;4.516;2023-06-10T09:21:43;5.82;;;4.03;;
24407;SDS011;12542;50.924;4.516;2023-06-10T09:24:09;5.65;;;3.75;;
24407;SDS011;12542;50.924;4.516;2023-06-10T09:26:35;5.63;;;4.13;;
24407;SDS011;12542;50.924;4.516;2023-06-10T09:29:04;5.15;;;3.95;;
24407;SDS011;12542;50.924;4.516;2023-06-10T09:31:31;5.63;;;4.10;;
24407;SDS011;12542;50.924;4.516;2023-06-10T09:34:10;6.88;;;3.88;;
24407;SDS011;12542;50.924;4.516;2023-06-10T09:36:38;6.13;;;3.95;;
24407;SDS011;12542;50.924;4.516;2023-06-10T09:39:05;12.70;;;4.63;;
24407;SDS011;12542;50.924;4.516;2023-06-10T09:41:41;16.35;;;5.97;;
24407;SDS011;12542;50.924;4.516;2023-06-10T09:44:17;7.22;;;3.90;;
24407;SDS011;12542;50.924;4.516;2023-06-10T09:46:48;10.40;;;4.60;;
24407;SDS011;12542;50.924;4.516;2023-06-10T09:49:18;5.18;;;4.20;;
24407;SDS011;12542;50.924;4.516;2023-06-10T09:51:51;7.47;;;4.38;;
24407;SDS011;12542;50.924;4.516;2023-06-10T09:54:18;6.03;;;4.27;;
24407;SDS011;12542;50.924;4.516;2023-06-10T09:56:46;5.28;;;4.40;;
24407;SDS011;12542;50.924;4.516;2023-06-10T09:59:12;4.85;;;4.22;;
24407;SDS011;12542;50.924;4.516;2023-06-10T10:01:38;5.18;;;4.00;;
24407;SDS011;12542;50.924;4.516;2023-06-10T10:04:06;6.65;;;4.47;;
24407;SDS011;12542;50.924;4.516;2023-06-10T10:06:32;6.47;;;4.18;;
24407;SDS011;12542;50.924;4.516;2023-06-10T10:09:00;6.95;;;4.38;;
24407;SDS011;12542;50.924;4.516;2023-06-10T10:11:26;5.93;;;4.10;;
24407;SDS011;12542;50.924;4.516;2023-06-10T10:13:52;6.88;;;4.43;;
24407;SDS011;12542;50.924;4.516;2023-06-10T10:16:23;6.72;;;4.72;;
24407;SDS011;12542;50.924;4.516;2023-06-10T10:18:59;7.72;;;4.60;;
24407;SDS011;12542;50.924;4.516;2023-06-10T10:21:32;5.88;;;4.45;;
24407;SDS011;12542;50.924;4.516;2023-06-10T10:26:46;6.65;;;4.65;;
24407;SDS011;12542;50.924;4.516;2023-06-10T10:31:50;7.60;;;4.80;;
24407;SDS011;12542;50.924;4.516;2023-06-10T10:34:29;7.07;;;4.78;;
24407;SDS011;12542;50.924;4.516;2023-06-10T10:37:05;9.43;;;5.22;;
24407;SDS011;12542;50.924;4.516;2023-06-10T10:39:32;7.00;;;4.32;;
24407;SDS011;12542;50.924;4.516;2023-06-10T10:41:59;9.32;;;4.75;;
24407;SDS011;12542;50.924;4.516;2023-06-10T10:44:25;7.80;;;5.10;;
24407;SDS011;12542;50.924;4.516;2023-06-10T10:46:52;7.18;;;4.82;;
24407;SDS011;12542;50.924;4.516;2023-06-10T10:49:19;5.28;;;4.68;;
24407;SDS011;12542;50.924;4.516;2023-06-10T10:54:29;6.22;;;4.10;;
24407;SDS011;12542;50.924;4.516;2023-06-10T10:59:43;6.18;;;4.10;;
24407;SDS011;12542;50.924;4.516;2023-06-10T11:02:34;7.00;;;3.97;;
24407;SDS011;12542;50.924;4.516;2023-06-10T11:05:04;6.07;;;5.05;;
24407;SDS011;12542;50.924;4.516;2023-06-10T11:07:31;6.13;;;3.80;;
24407;SDS011;12542;50.924;4.516;2023-06-10T11:10:10;7.68;;;4.53;;
24407;SDS011;12542;50.924;4.516;2023-06-10T11:12:44;7.25;;;4.10;;
24407;SDS011;12542;50.924;4.516;2023-06-10T11:15:20;6.10;;;4.50;;
24407;SDS011;12542;50.924;4.516;2023-06-10T11:18:06;6.60;;;4.25;;
24407;SDS011;12542;50.924;4.516;2023-06-10T11:25:51;8.30;;;4.43;;
24407;SDS011;12542;50.924;4.516;2023-06-10T11:28:19;9.40;;;4.45;;
24407;SDS011;12542;50.924;4.516;2023-06-10T11:30:45;6.47;;;4.85;;
24407;SDS011;12542;50.924;4.516;2023-06-10T11:33:21;7.60;;;4.13;;
24407;SDS011;12542;50.924;4.516;2023-06-10T11:35:49;9.57;;;4.90;;
24407;SDS011;12542;50.924;4.516;2023-06-10T11:38:15;5.47;;;4.20;;
24407;SDS011;12542;50.924;4.516;2023-06-10T11:40:46;7.78;;;4.65;;
24407;SDS011;12542;50.924;4.516;2023-06-10T11:43:14;6.28;;;4.15;;
24407;SDS011;12542;50.924;4.516;2023-06-10T11:45:41;5.82;;;4.15;;
24407;SDS011;12542;50.924;4.516;2023-06-10T11:48:07;6.70;;;4.40;;
24407;SDS011;12542;50.924;4.516;2023-06-10T11:50:34;7.15;;;4.43;;
24407;SDS011;12542;50.924;4.516;2023-06-10T11:53:00;6.18;;;4.40;;
24407;SDS011;12542;50.924;4.516;2023-06-10T11:55:48;13.57;;;5.07;;
24407;SDS011;12542;50.924;4.516;2023-06-10T11:58:17;6.90;;;4.63;;
24407;SDS011;12542;50.924;4.516;2023-06-10T12:00:50;7.63;;;4.40;;
24407;SDS011;12542;50.924;4.516;2023-06-10T12:03:26;6.97;;;4.30;;
24407;SDS011;12542;50.924;4.516;2023-06-10T12:08:27;5.35;;;4.43;;
24407;SDS011;12542;50.924;4.516;2023-06-10T12:10:53;7.82;;;4.47;;
24407;SDS011;12542;50.924;4.516;2023-06-10T12:13:20;7.15;;;4.80;;
24407;SDS011;12542;50.924;4.516;2023-06-10T12:15:46;6.50;;;4.80;;
24407;SDS011;12542;50.924;4.516;2023-06-10T12:18:15;9.48;;;4.40;;
24407;SDS011;12542;50.924;4.516;2023-06-10T12:20:43;6.75;;;4.55;;
24407;SDS011;12542;50.924;4.516;2023-06-10T12:23:09;7.35;;;4.30;;
24407;SDS011;12542;50.924;4.516;2023-06-10T12:25:38;6.38;;;4.25;;
24407;SDS011;12542;50.924;4.516;2023-06-10T12:28:05;5.97;;;4.20;;
24407;SDS011;12542;50.924;4.516;2023-06-10T12:30:32;8.40;;;4.18;;
24407;SDS011;12542;50.924;4.516;2023-06-10T12:32:58;5.28;;;4.40;;
24407;SDS011;12542;50.924;4.516;2023-06-10T12:35:24;8.85;;;4.43;;
24407;SDS011;12542;50.924;4.516;2023-06-10T12:37:58;6.07;;;3.88;;
24407;SDS011;12542;50.924;4.516;2023-06-10T12:42:54;6.93;;;4.13;;
24407;SDS011;12542;50.924;4.516;2023-06-10T12:45:28;5.72;;;3.95;;
24407;SDS011;12542;50.924;4.516;2023-06-10T12:48:04;6.82;;;4.15;;
24407;SDS011;12542;50.924;4.516;2023-06-10T12:50:37;6.32;;;3.97;;
24407;SDS011;12542;50.924;4.516;2023-06-10T12:53:05;9.45;;;3.70;;
24407;SDS011;12542;50.924;4.516;2023-06-10T12:55:32;10.00;;;4.13;;
24407;SDS011;12542;50.924;4.516;2023-06-10T12:57:58;6.43;;;3.78;;
24407;SDS011;12542;50.924;4.516;2023-06-10T13:00:25;6.05;;;4.47;;
24407;SDS011;12542;50.924;4.516;2023-06-10T13:02:53;5.72;;;4.25;;
24407;SDS011;12542;50.924;4.516;2023-06-10T13:05:19;6.22;;;4.00;;
24407;SDS011;12542;50.924;4.516;2023-06-10T13:07:45;4.88;;;3.85;;
24407;SDS011;12542;50.924;4.516;2023-06-10T13:10:13;6.97;;;4.25;;
24407;SDS011;12542;50.924;4.516;2023-06-10T13:12:41;6.88;;;4.38;;
24407;SDS011;12542;50.924;4.516;2023-06-10T13:15:07;10.63;;;4.30;;
24407;SDS011;12542;50.924;4.516;2023-06-10T13:17:33;6.40;;;4.50;;
24407;SDS011;12542;50.924;4.516;2023-06-10T13:20:00;7.43;;;4.72;;
24407;SDS011;12542;50.924;4.516;2023-06-10T13:22:30;6.60;;;4.40;;
24407;SDS011;12542;50.924;4.516;2023-06-10T13:25:01;6.80;;;4.07;;
24407;SDS011;12542;50.924;4.516;2023-06-10T13:27:31;6.43;;;4.57;;
24407;SDS011;12542;50.924;4.516;2023-06-10T13:30:03;8.55;;;4.28;;
24407;SDS011;12542;50.924;4.516;2023-06-10T13:32:31;6.95;;;4.85;;
24407;SDS011;12542;50.924;4.516;2023-06-10T13:34:57;10.57;;;4.25;;
24407;SDS011;12542;50.924;4.516;2023-06-10T13:37:23;5.03;;;3.95;;
24407;SDS011;12542;50.924;4.516;2023-06-10T13:39:49;8.45;;;4.45;;
24407;SDS011;12542;50.924;4.516;2023-06-10T13:42:18;9.88;;;4.47;;
24407;SDS011;12542;50.924;4.516;2023-06-10T13:44:44;6.68;;;4.50;;
24407;SDS011;12542;50.924;4.516;2023-06-10T13:47:10;6.78;;;4.30;;
24407;SDS011;12542;50.924;4.516;2023-06-10T13:49:36;7.80;;;4.38;;
24407;SDS011;12542;50.924;4.516;2023-06-10T13:52:02;5.10;;;4.07;;
24407;SDS011;12542;50.924;4.516;2023-06-10T13:54:28;9.15;;;4.60;;
24407;SDS011;12542;50.924;4.516;2023-06-10T13:56:54;8.52;;;4.43;;
24407;SDS011;12542;50.924;4.516;2023-06-10T13:59:19;8.65;;;3.97;;
24407;SDS011;12542;50.924;4.516;2023-06-10T14:01:46;6.53;;;4.40;;
24407;SDS011;12542;50.924;4.516;2023-06-10T14:04:12;6.65;;;3.97;;
24407;SDS011;12542;50.924;4.516;2023-06-10T14:06:38;6.53;;;4.32;;
24407;SDS011;12542;50.924;4.516;2023-06-10T14:09:04;6.03;;;4.18;;
24407;SDS011;12542;50.924;4.516;2023-06-10T14:11:30;7.30;;;4.30;;
24407;SDS011;12542;50.924;4.516;2023-06-10T14:13:56;7.10;;;3.97;;
24407;SDS011;12542;50.924;4.516;2023-06-10T14:16:22;6.10;;;4.50;;
24407;SDS011;12542;50.924;4.516;2023-06-10T14:18:49;6.50;;;4.20;;
24407;SDS011;12542;50.924;4.516;2023-06-10T14:21:17;6.10;;;3.92;;
24407;SDS011;12542;50.924;4.516;2023-06-10T14:23:43;7.15;;;4.43;;
24407;SDS011;12542;50.924;4.516;2023-06-10T14:26:09;7.53;;;4.20;;
24407;SDS011;12542;50.924;4.516;2023-06-10T14:28:35;4.72;;;3.97;;
24407;SDS011;12542;50.924;4.516;2023-06-10T14:31:01;9.10;;;4.47;;
24407;SDS011;12542;50.924;4.516;2023-06-10T14:33:27;7.93;;;4.57;;
24407;SDS011;12542;50.924;4.516;2023-06-10T14:35:53;6.82;;;4.40;;
24407;SDS011;12542;50.924;4.516;2023-06-10T14:38:19;10.18;;;4.60;;
24407;SDS011;12542;50.924;4.516;2023-06-10T14:40:45;9.80;;;4.45;;
24407;SDS011;12542;50.924;4.516;2023-06-10T14:43:11;6.65;;;4.15;;
24407;SDS011;12542;50.924;4.516;2023-06-10T14:45:37;5.38;;;4.00;;
24407;SDS011;12542;50.924;4.516;2023-06-10T14:48:07;5.28;;;4.47;;
24407;SDS011;12542;50.924;4.516;2023-06-10T14:50:36;8.50;;;4.40;;
24407;SDS011;12542;50.924;4.516;2023-06-10T14:53:02;6.38;;;4.05;;
24407;SDS011;12542;50.924;4.516;2023-06-10T14:55:28;9.20;;;5.05;;
24407;SDS011;12542;50.924;4.516;2023-06-10T14:57:54;6.68;;;4.30;;
24407;SDS011;12542;50.924;4.516;2023-06-10T15:00:20;5.38;;;4.28;;
24407;SDS011;12542;50.924;4.516;2023-06-10T15:02:49;7.05;;;4.45;;
24407;SDS011;12542;50.924;4.516;2023-06-10T15:05:15;7.28;;;4.63;;
24407;SDS011;12542;50.924;4.516;2023-06-10T15:07:42;4.65;;;4.15;;
24407;SDS011;12542;50.924;4.516;2023-06-10T15:10:08;7.35;;;4.30;;
24407;SDS011;12542;50.924;4.516;2023-06-10T15:12:35;12.70;;;4.38;;